Terminal Aerodrome Forecast
Issued by NWS

Home | Current Version | Previous Version | Text Only | Print | Product List | Glossary On
Versions: 1 2 3 4 5 6 7 8 9 10 11 12 13 14 15 16
307
FTUS46 KMTR 052338
TAFSJC
TAF
KSJC 052338Z 0600/0624 28003KT P6SM FEW014 BKN020 OVC025
     FM060200 31003KT P6SM SCT020 BKN200
     FM060900 VRB03KT P6SM SCT200
     FM061800 30008KT P6SM BKN200=

USA.gov is the U.S. government's official web portal to all federal, state and local government web resources and services.